sensor_id;sensor_type;location;lat;lon;timestamp;temperature;humidity
18717;DHT22;9487;50.892;6.906;2024-02-21T00:00:29;10.20;1.00
18717;DHT22;9487;50.892;6.906;2024-02-21T00:02:55;10.30;1.00
18717;DHT22;9487;50.892;6.906;2024-02-21T00:05:26;10.30;1.00
18717;DHT22;9487;50.892;6.906;2024-02-21T00:07:53;10.30;1.00
18717;DHT22;9487;50.892;6.906;2024-02-21T00:10:19;10.30;1.00
18717;DHT22;9487;50.892;6.906;2024-02-21T00:12:48;10.30;1.00
18717;DHT22;9487;50.892;6.906;2024-02-21T00:15:15;10.20;1.00
18717;DHT22;9487;50.892;6.906;2024-02-21T00:17:44;10.20;1.00
18717;DHT22;9487;50.892;6.906;2024-02-21T00:20:11;10.20;1.00
18717;DHT22;9487;50.892;6.906;2024-02-21T00:22:40;10.20;1.00
18717;DHT22;9487;50.892;6.906;2024-02-21T00:25:07;10.20;1.00
18717;DHT22;9487;50.892;6.906;2024-02-21T00:27:34;10.10;1.00
18717;DHT22;9487;50.892;6.906;2024-02-21T00:30:01;10.20;1.00
18717;DHT22;9487;50.892;6.906;2024-02-21T00:32:28;10.20;1.00
18717;DHT22;9487;50.892;6.906;2024-02-21T00:34:55;10.10;1.00
18717;DHT22;9487;50.892;6.906;2024-02-21T00:37:22;10.00;1.00
18717;DHT22;9487;50.892;6.906;2024-02-21T00:39:51;10.00;1.00
18717;DHT22;9487;50.892;6.906;2024-02-21T00:42:18;10.00;1.00
18717;DHT22;9487;50.892;6.906;2024-02-21T00:44:45;10.00;1.00
18717;DHT22;9487;50.892;6.906;2024-02-21T00:47:11;10.00;1.00
18717;DHT22;9487;50.892;6.906;2024-02-21T00:49:38;10.00;1.00
18717;DHT22;9487;50.892;6.906;2024-02-21T00:52:04;10.00;1.00
18717;DHT22;9487;50.892;6.906;2024-02-21T00:54:31;10.10;1.00
18717;DHT22;9487;50.892;6.906;2024-02-21T00:57:01;10.10;1.00
18717;DHT22;9487;50.892;6.906;2024-02-21T00:59:27;10.10;1.00
18717;DHT22;9487;50.892;6.906;2024-02-21T01:01:54;10.10;1.00
18717;DHT22;9487;50.892;6.906;2024-02-21T01:04:21;10.10;1.00
18717;DHT22;9487;50.892;6.906;2024-02-21T01:06:50;10.10;1.00
18717;DHT22;9487;50.892;6.906;2024-02-21T01:09:16;10.00;1.00
18717;DHT22;9487;50.892;6.906;2024-02-21T01:11:43;10.00;1.00
18717;DHT22;9487;50.892;6.906;2024-02-21T01:14:11;10.00;1.00
18717;DHT22;9487;50.892;6.906;2024-02-21T01:16:38;10.10;1.00
18717;DHT22;9487;50.892;6.906;2024-02-21T01:19:05;10.00;1.00
18717;DHT22;9487;50.892;6.906;2024-02-21T01:21:32;10.00;1.00
18717;DHT22;9487;50.892;6.906;2024-02-21T01:23:59;10.00;1.00
18717;DHT22;9487;50.892;6.906;2024-02-21T01:26:26;10.00;1.00
18717;DHT22;9487;50.892;6.906;2024-02-21T01:28:52;10.10;1.00
18717;DHT22;9487;50.892;6.906;2024-02-21T01:31:20;10.00;1.00
18717;DHT22;9487;50.892;6.906;2024-02-21T01:33:47;10.00;1.00
18717;DHT22;9487;50.892;6.906;2024-02-21T01:36:14;9.90;1.00
18717;DHT22;9487;50.892;6.906;2024-02-21T01:38:41;9.90;1.00
18717;DHT22;9487;50.892;6.906;2024-02-21T01:41:09;9.80;1.00
18717;DHT22;9487;50.892;6.906;2024-02-21T01:43:35;10.00;1.00
18717;DHT22;9487;50.892;6.906;2024-02-21T01:46:02;10.00;1.00
18717;DHT22;9487;50.892;6.906;2024-02-21T01:48:31;9.90;1.00
18717;DHT22;9487;50.892;6.906;2024-02-21T01:50:57;9.90;1.00
18717;DHT22;9487;50.892;6.906;2024-02-21T01:53:29;10.00;1.00
18717;DHT22;9487;50.892;6.906;2024-02-21T01:55:56;10.00;1.00
18717;DHT22;9487;50.892;6.906;2024-02-21T01:58:24;9.90;1.00
18717;DHT22;9487;50.892;6.906;2024-02-21T02:00:50;9.80;1.00
18717;DHT22;9487;50.892;6.906;2024-02-21T02:03:17;9.80;1.00
18717;DHT22;9487;50.892;6.906;2024-02-21T02:05:47;9.80;1.00
18717;DHT22;9487;50.892;6.906;2024-02-21T02:08:14;9.80;1.00
18717;DHT22;9487;50.892;6.906;2024-02-21T02:10:41;9.80;1.00
18717;DHT22;9487;50.892;6.906;2024-02-21T02:13:09;9.80;1.00
18717;DHT22;9487;50.892;6.906;2024-02-21T02:15:40;9.80;1.00
18717;DHT22;9487;50.892;6.906;2024-02-21T02:18:07;9.70;1.00
18717;DHT22;9487;50.892;6.906;2024-02-21T02:20:34;9.70;1.00
18717;DHT22;9487;50.892;6.906;2024-02-21T02:23:07;9.80;1.00
18717;DHT22;9487;50.892;6.906;2024-02-21T02:25:35;9.70;1.00
18717;DHT22;9487;50.892;6.906;2024-02-21T02:28:03;9.70;1.00
18717;DHT22;9487;50.892;6.906;2024-02-21T02:30:32;9.80;1.00
18717;DHT22;9487;50.892;6.906;2024-02-21T02:32:59;9.90;1.00
18717;DHT22;9487;50.892;6.906;2024-02-21T02:35:26;9.90;1.00
18717;DHT22;9487;50.892;6.906;2024-02-21T02:37:52;9.80;1.00
18717;DHT22;9487;50.892;6.906;2024-02-21T02:40:19;9.70;1.00
18717;DHT22;9487;50.892;6.906;2024-02-21T02:42:48;9.70;1.00
18717;DHT22;9487;50.892;6.906;2024-02-21T02:45:15;9.80;1.00
18717;DHT22;9487;50.892;6.906;2024-02-21T02:47:42;9.90;1.00
18717;DHT22;9487;50.892;6.906;2024-02-21T02:50:11;9.90;1.00
18717;DHT22;9487;50.892;6.906;2024-02-21T02:52:38;10.00;1.00
18717;DHT22;9487;50.892;6.906;2024-02-21T02:55:05;10.00;1.00
18717;DHT22;9487;50.892;6.906;2024-02-21T02:57:32;9.90;1.00
18717;DHT22;9487;50.892;6.906;2024-02-21T03:00:00;9.90;1.00
18717;DHT22;9487;50.892;6.906;2024-02-21T03:02:27;10.00;1.00
18717;DHT22;9487;50.892;6.906;2024-02-21T03:04:54;10.00;1.00
18717;DHT22;9487;50.892;6.906;2024-02-21T03:07:21;10.00;1.00
18717;DHT22;9487;50.892;6.906;2024-02-21T03:09:48;9.90;1.00
18717;DHT22;9487;50.892;6.906;2024-02-21T03:12:14;9.90;1.00
18717;DHT22;9487;50.892;6.906;2024-02-21T03:14:49;9.90;1.00
18717;DHT22;9487;50.892;6.906;2024-02-21T03:17:17;9.90;1.00
18717;DHT22;9487;50.892;6.906;2024-02-21T03:19:44;9.90;1.00
18717;DHT22;9487;50.892;6.906;2024-02-21T03:22:11;9.80;1.00
18717;DHT22;9487;50.892;6.906;2024-02-21T03:24:38;9.80;1.00
18717;DHT22;9487;50.892;6.906;2024-02-21T03:27:04;9.80;1.00
18717;DHT22;9487;50.892;6.906;2024-02-21T03:29:31;9.90;1.00
18717;DHT22;9487;50.892;6.906;2024-02-21T03:31:58;9.90;1.00
18717;DHT22;9487;50.892;6.906;2024-02-21T03:34:26;9.90;1.00
18717;DHT22;9487;50.892;6.906;2024-02-21T03:36:53;9.90;1.00
18717;DHT22;9487;50.892;6.906;2024-02-21T03:39:20;9.90;1.00
18717;DHT22;9487;50.892;6.906;2024-02-21T03:41:47;9.90;1.00
18717;DHT22;9487;50.892;6.906;2024-02-21T03:44:15;9.80;1.00
18717;DHT22;9487;50.892;6.906;2024-02-21T03:46:42;9.80;1.00
18717;DHT22;9487;50.892;6.906;2024-02-21T03:49:09;9.80;1.00
18717;DHT22;9487;50.892;6.906;2024-02-21T03:51:37;9.70;1.00
18717;DHT22;9487;50.892;6.906;2024-02-21T03:54:04;9.60;1.00
18717;DHT22;9487;50.892;6.906;2024-02-21T03:56:31;9.60;1.00
18717;DHT22;9487;50.892;6.906;2024-02-21T03:58:58;9.60;1.00
18717;DHT22;9487;50.892;6.906;2024-02-21T04:01:25;9.60;1.00
18717;DHT22;9487;50.892;6.906;2024-02-21T04:03:51;9.60;1.00
18717;DHT22;9487;50.892;6.906;2024-02-21T04:06:18;9.70;1.00
18717;DHT22;9487;50.892;6.906;2024-02-21T04:08:46;9.60;1.00
18717;DHT22;9487;50.892;6.906;2024-02-21T04:11:13;9.60;1.00
18717;DHT22;9487;50.892;6.906;2024-02-21T04:13:40;9.60;1.00
18717;DHT22;9487;50.892;6.906;2024-02-21T04:16:06;9.50;1.00
18717;DHT22;9487;50.892;6.906;2024-02-21T04:18:33;9.50;1.00
18717;DHT22;9487;50.892;6.906;2024-02-21T04:20:59;9.50;1.00
18717;DHT22;9487;50.892;6.906;2024-02-21T04:23:26;9.40;1.00
18717;DHT22;9487;50.892;6.906;2024-02-21T04:25:54;9.40;1.00
18717;DHT22;9487;50.892;6.906;2024-02-21T04:28:21;9.30;1.00
18717;DHT22;9487;50.892;6.906;2024-02-21T04:30:48;9.30;1.00
18717;DHT22;9487;50.892;6.906;2024-02-21T04:33:15;9.30;1.00
18717;DHT22;9487;50.892;6.906;2024-02-21T04:35:41;9.50;1.00
18717;DHT22;9487;50.892;6.906;2024-02-21T04:38:08;9.60;1.00
18717;DHT22;9487;50.892;6.906;2024-02-21T04:40:35;9.50;1.00
18717;DHT22;9487;50.892;6.906;2024-02-21T04:43:03;9.50;1.00
18717;DHT22;9487;50.892;6.906;2024-02-21T04:45:30;9.40;1.00
18717;DHT22;9487;50.892;6.906;2024-02-21T04:47:57;9.40;1.00
18717;DHT22;9487;50.892;6.906;2024-02-21T04:50:24;9.30;1.00
18717;DHT22;9487;50.892;6.906;2024-02-21T04:52:50;9.30;1.00
18717;DHT22;9487;50.892;6.906;2024-02-21T04:55:20;9.50;1.00
18717;DHT22;9487;50.892;6.906;2024-02-21T04:57:46;9.50;1.00
18717;DHT22;9487;50.892;6.906;2024-02-21T05:00:15;9.50;1.00
18717;DHT22;9487;50.892;6.906;2024-02-21T05:02:42;9.40;1.00
18717;DHT22;9487;50.892;6.906;2024-02-21T05:05:09;9.50;1.00
18717;DHT22;9487;50.892;6.906;2024-02-21T05:07:36;9.50;1.00
18717;DHT22;9487;50.892;6.906;2024-02-21T05:10:07;9.30;1.00
18717;DHT22;9487;50.892;6.906;2024-02-21T05:12:34;9.40;1.00
18717;DHT22;9487;50.892;6.906;2024-02-21T05:15:01;9.40;1.00
18717;DHT22;9487;50.892;6.906;2024-02-21T05:17:30;9.30;1.00
18717;DHT22;9487;50.892;6.906;2024-02-21T05:19:57;9.30;1.00
18717;DHT22;9487;50.892;6.906;2024-02-21T05:22:24;9.30;1.00
18717;DHT22;9487;50.892;6.906;2024-02-21T05:24:51;9.40;1.00
18717;DHT22;9487;50.892;6.906;2024-02-21T05:27:17;9.40;1.00
18717;DHT22;9487;50.892;6.906;2024-02-21T05:29:44;9.40;1.00
18717;DHT22;9487;50.892;6.906;2024-02-21T05:32:11;9.40;1.00
18717;DHT22;9487;50.892;6.906;2024-02-21T05:34:39;9.40;1.00
18717;DHT22;9487;50.892;6.906;2024-02-21T05:37:06;9.40;1.00
18717;DHT22;9487;50.892;6.906;2024-02-21T05:39:33;9.40;1.00
18717;DHT22;9487;50.892;6.906;2024-02-21T05:41:59;9.40;1.00
18717;DHT22;9487;50.892;6.906;2024-02-21T05:44:28;9.40;1.00
18717;DHT22;9487;50.892;6.906;2024-02-21T05:46:54;9.30;1.00
18717;DHT22;9487;50.892;6.906;2024-02-21T05:49:21;9.40;1.00
18717;DHT22;9487;50.892;6.906;2024-02-21T05:51:50;9.40;1.00
18717;DHT22;9487;50.892;6.906;2024-02-21T05:54:17;9.30;1.00
18717;DHT22;9487;50.892;6.906;2024-02-21T05:56:45;9.40;1.00
18717;DHT22;9487;50.892;6.906;2024-02-21T05:59:12;9.40;1.00
18717;DHT22;9487;50.892;6.906;2024-02-21T06:01:39;9.40;1.00
18717;DHT22;9487;50.892;6.906;2024-02-21T06:04:06;9.40;1.00
18717;DHT22;9487;50.892;6.906;2024-02-21T06:06:33;9.40;1.00
18717;DHT22;9487;50.892;6.906;2024-02-21T06:09:01;9.40;1.00
18717;DHT22;9487;50.892;6.906;2024-02-21T06:11:28;9.40;1.00
18717;DHT22;9487;50.892;6.906;2024-02-21T06:13:55;9.40;1.00
18717;DHT22;9487;50.892;6.906;2024-02-21T06:16:22;9.30;1.00
18717;DHT22;9487;50.892;6.906;2024-02-21T06:18:49;9.40;1.00
18717;DHT22;9487;50.892;6.906;2024-02-21T06:21:16;9.40;1.00
18717;DHT22;9487;50.892;6.906;2024-02-21T06:23:45;9.40;1.00
18717;DHT22;9487;50.892;6.906;2024-02-21T06:26:14;9.30;1.00
18717;DHT22;9487;50.892;6.906;2024-02-21T06:28:40;9.40;1.00
18717;DHT22;9487;50.892;6.906;2024-02-21T06:31:08;9.40;1.00
18717;DHT22;9487;50.892;6.906;2024-02-21T06:33:35;9.40;1.00
18717;DHT22;9487;50.892;6.906;2024-02-21T06:36:02;9.40;1.00
18717;DHT22;9487;50.892;6.906;2024-02-21T06:38:29;9.50;1.00
18717;DHT22;9487;50.892;6.906;2024-02-21T06:40:55;9.60;1.00
18717;DHT22;9487;50.892;6.906;2024-02-21T06:43:25;9.60;1.00
18717;DHT22;9487;50.892;6.906;2024-02-21T06:45:52;9.60;1.00
18717;DHT22;9487;50.892;6.906;2024-02-21T06:48:19;9.60;1.00
18717;DHT22;9487;50.892;6.906;2024-02-21T06:50:46;9.60;1.00
18717;DHT22;9487;50.892;6.906;2024-02-21T06:53:13;9.60;1.00
18717;DHT22;9487;50.892;6.906;2024-02-21T06:55:40;9.60;1.00
18717;DHT22;9487;50.892;6.906;2024-02-21T06:58:06;9.70;1.00
18717;DHT22;9487;50.892;6.906;2024-02-21T07:03:05;9.60;1.00
18717;DHT22;9487;50.892;6.906;2024-02-21T07:05:33;9.60;1.00
18717;DHT22;9487;50.892;6.906;2024-02-21T07:08:00;9.40;1.00
18717;DHT22;9487;50.892;6.906;2024-02-21T07:10:27;9.40;1.00
18717;DHT22;9487;50.892;6.906;2024-02-21T07:12:54;9.40;1.00
18717;DHT22;9487;50.892;6.906;2024-02-21T07:15:21;9.60;1.00
18717;DHT22;9487;50.892;6.906;2024-02-21T07:17:49;9.60;1.00
18717;DHT22;9487;50.892;6.906;2024-02-21T07:20:16;9.70;1.00
18717;DHT22;9487;50.892;6.906;2024-02-21T07:22:43;9.70;1.00
18717;DHT22;9487;50.892;6.906;2024-02-21T07:25:09;9.70;1.00
18717;DHT22;9487;50.892;6.906;2024-02-21T07:27:36;9.60;1.00
18717;DHT22;9487;50.892;6.906;2024-02-21T07:30:04;9.70;1.00
18717;DHT22;9487;50.892;6.906;2024-02-21T07:32:31;9.80;1.00
18717;DHT22;9487;50.892;6.906;2024-02-21T07:35:00;9.70;1.00
18717;DHT22;9487;50.892;6.906;2024-02-21T07:37:27;9.60;1.00
18717;DHT22;9487;50.892;6.906;2024-02-21T07:39:53;9.50;1.00
18717;DHT22;9487;50.892;6.906;2024-02-21T07:42:20;9.40;1.00
18717;DHT22;9487;50.892;6.906;2024-02-21T07:44:47;9.40;1.00
18717;DHT22;9487;50.892;6.906;2024-02-21T07:47:14;9.40;1.00
18717;DHT22;9487;50.892;6.906;2024-02-21T07:49:41;9.40;1.00
18717;DHT22;9487;50.892;6.906;2024-02-21T07:52:10;9.40;1.00
18717;DHT22;9487;50.892;6.906;2024-02-21T07:54:36;9.30;1.00
18717;DHT22;9487;50.892;6.906;2024-02-21T07:57:03;9.30;1.00
18717;DHT22;9487;50.892;6.906;2024-02-21T07:59:30;9.30;1.00
18717;DHT22;9487;50.892;6.906;2024-02-21T08:01:57;9.30;1.00
18717;DHT22;9487;50.892;6.906;2024-02-21T08:04:24;9.40;1.00
18717;DHT22;9487;50.892;6.906;2024-02-21T08:06:52;9.30;1.00
18717;DHT22;9487;50.892;6.906;2024-02-21T08:09:22;9.40;1.00
18717;DHT22;9487;50.892;6.906;2024-02-21T08:11:49;9.40;1.00
18717;DHT22;9487;50.892;6.906;2024-02-21T08:14:17;9.40;1.00
18717;DHT22;9487;50.892;6.906;2024-02-21T08:16:44;9.80;1.00
18717;DHT22;9487;50.892;6.906;2024-02-21T08:19:11;10.00;1.00
18717;DHT22;9487;50.892;6.906;2024-02-21T08:21:38;10.00;1.00
18717;DHT22;9487;50.892;6.906;2024-02-21T08:24:06;9.90;1.00
18717;DHT22;9487;50.892;6.906;2024-02-21T08:26:34;9.80;1.00
18717;DHT22;9487;50.892;6.906;2024-02-21T08:29:01;9.80;1.00
18717;DHT22;9487;50.892;6.906;2024-02-21T08:31:28;9.70;1.00
18717;DHT22;9487;50.892;6.906;2024-02-21T08:33:57;9.70;1.00
18717;DHT22;9487;50.892;6.906;2024-02-21T08:36:28;9.70;1.00
18717;DHT22;9487;50.892;6.906;2024-02-21T08:38:54;9.80;1.00
18717;DHT22;9487;50.892;6.906;2024-02-21T08:41:21;9.90;1.00
18717;DHT22;9487;50.892;6.906;2024-02-21T08:43:50;9.90;1.00
18717;DHT22;9487;50.892;6.906;2024-02-21T08:46:17;10.00;1.00
18717;DHT22;9487;50.892;6.906;2024-02-21T08:48:44;10.10;1.00
18717;DHT22;9487;50.892;6.906;2024-02-21T08:51:12;10.10;1.00
18717;DHT22;9487;50.892;6.906;2024-02-21T08:53:39;10.10;1.00
18717;DHT22;9487;50.892;6.906;2024-02-21T08:56:06;10.00;1.00
18717;DHT22;9487;50.892;6.906;2024-02-21T08:58:35;10.00;1.00
18717;DHT22;9487;50.892;6.906;2024-02-21T09:01:04;10.10;1.00
18717;DHT22;9487;50.892;6.906;2024-02-21T09:03:31;10.20;1.00
18717;DHT22;9487;50.892;6.906;2024-02-21T09:05:58;10.30;1.00
18717;DHT22;9487;50.892;6.906;2024-02-21T09:08:25;10.30;1.00
18717;DHT22;9487;50.892;6.906;2024-02-21T09:10:52;10.40;1.00
18717;DHT22;9487;50.892;6.906;2024-02-21T09:13:19;10.50;1.00
18717;DHT22;9487;50.892;6.906;2024-02-21T09:15:47;10.60;1.00
18717;DHT22;9487;50.892;6.906;2024-02-21T09:18:16;10.50;1.00
18717;DHT22;9487;50.892;6.906;2024-02-21T09:20:43;10.60;99.90
18717;DHT22;9487;50.892;6.906;2024-02-21T09:23:09;10.80;99.90
18717;DHT22;9487;50.892;6.906;2024-02-21T09:25:36;10.80;99.90
18717;DHT22;9487;50.892;6.906;2024-02-21T09:28:04;10.80;99.90
18717;DHT22;9487;50.892;6.906;2024-02-21T09:30:31;10.60;99.90
18717;DHT22;9487;50.892;6.906;2024-02-21T09:32:58;10.60;99.90
18717;DHT22;9487;50.892;6.906;2024-02-21T09:35:28;10.60;99.90
18717;DHT22;9487;50.892;6.906;2024-02-21T09:37:55;10.50;99.90
18717;DHT22;9487;50.892;6.906;2024-02-21T09:40:22;10.50;99.90
18717;DHT22;9487;50.892;6.906;2024-02-21T09:42:55;10.50;99.90
18717;DHT22;9487;50.892;6.906;2024-02-21T09:45:27;10.60;99.90
18717;DHT22;9487;50.892;6.906;2024-02-21T09:48:07;10.60;99.90
18717;DHT22;9487;50.892;6.906;2024-02-21T09:50:43;10.80;56.80
18717;DHT22;9487;50.892;6.906;2024-02-21T09:53:12;10.80;96.70
18717;DHT22;9487;50.892;6.906;2024-02-21T09:55:40;10.90;1.00
18717;DHT22;9487;50.892;6.906;2024-02-21T09:58:07;10.90;1.00
18717;DHT22;9487;50.892;6.906;2024-02-21T10:00:35;11.00;1.00
18717;DHT22;9487;50.892;6.906;2024-02-21T10:03:02;11.10;1.00
18717;DHT22;9487;50.892;6.906;2024-02-21T10:05:33;11.00;1.00
18717;DHT22;9487;50.892;6.906;2024-02-21T10:08:03;11.10;1.00
18717;DHT22;9487;50.892;6.906;2024-02-21T10:10:32;11.10;1.00
18717;DHT22;9487;50.892;6.906;2024-02-21T10:13:06;11.10;1.00
18717;DHT22;9487;50.892;6.906;2024-02-21T10:15:33;11.20;1.00
18717;DHT22;9487;50.892;6.906;2024-02-21T10:18:01;11.30;99.90
18717;DHT22;9487;50.892;6.906;2024-02-21T10:20:30;11.20;1.00
18717;DHT22;9487;50.892;6.906;2024-02-21T10:23:05;11.20;1.00
18717;DHT22;9487;50.892;6.906;2024-02-21T10:25:35;11.10;1.00
18717;DHT22;9487;50.892;6.906;2024-02-21T10:28:04;11.20;99.90
18717;DHT22;9487;50.892;6.906;2024-02-21T10:30:31;11.30;17.80
18717;DHT22;9487;50.892;6.906;2024-02-21T10:32:58;11.20;1.00
18717;DHT22;9487;50.892;6.906;2024-02-21T10:35:30;11.20;99.90
18717;DHT22;9487;50.892;6.906;2024-02-21T10:37:57;11.40;99.90
18717;DHT22;9487;50.892;6.906;2024-02-21T10:40:27;11.50;1.00
18717;DHT22;9487;50.892;6.906;2024-02-21T10:42:57;11.50;1.00
18717;DHT22;9487;50.892;6.906;2024-02-21T10:45:29;11.70;85.90
18717;DHT22;9487;50.892;6.906;2024-02-21T10:48:10;11.80;61.90
18717;DHT22;9487;50.892;6.906;2024-02-21T10:50:47;11.80;1.00
18717;DHT22;9487;50.892;6.906;2024-02-21T10:53:24;12.00;99.90
18717;DHT22;9487;50.892;6.906;2024-02-21T10:56:04;12.00;4.30
18717;DHT22;9487;50.892;6.906;2024-02-21T10:58:35;12.00;1.00
18717;DHT22;9487;50.892;6.906;2024-02-21T11:01:03;11.80;99.90
18717;DHT22;9487;50.892;6.906;2024-02-21T11:03:31;11.70;80.20
18717;DHT22;9487;50.892;6.906;2024-02-21T11:05:59;11.80;99.90
18717;DHT22;9487;50.892;6.906;2024-02-21T11:08:26;11.90;1.00
18717;DHT22;9487;50.892;6.906;2024-02-21T11:10:59;11.90;1.00
18717;DHT22;9487;50.892;6.906;2024-02-21T11:13:34;11.90;1.00
18717;DHT22;9487;50.892;6.906;2024-02-21T11:16:08;11.90;1.00
18717;DHT22;9487;50.892;6.906;2024-02-21T11:18:36;12.00;1.00
18717;DHT22;9487;50.892;6.906;2024-02-21T11:21:03;12.20;99.90
18717;DHT22;9487;50.892;6.906;2024-02-21T11:23:31;12.00;1.00
18717;DHT22;9487;50.892;6.906;2024-02-21T11:26:06;12.10;1.00
18717;DHT22;9487;50.892;6.906;2024-02-21T11:28:33;12.10;99.90
18717;DHT22;9487;50.892;6.906;2024-02-21T11:31:09;12.30;1.00
18717;DHT22;9487;50.892;6.906;2024-02-21T11:33:41;12.30;1.00
18717;DHT22;9487;50.892;6.906;2024-02-21T11:36:09;12.30;1.00
18717;DHT22;9487;50.892;6.906;2024-02-21T11:38:36;12.20;1.00
18717;DHT22;9487;50.892;6.906;2024-02-21T11:41:03;12.10;1.00
18717;DHT22;9487;50.892;6.906;2024-02-21T11:43:36;12.00;99.90
18717;DHT22;9487;50.892;6.906;2024-02-21T11:46:03;12.00;43.10
18717;DHT22;9487;50.892;6.906;2024-02-21T11:48:32;11.80;1.00
18717;DHT22;9487;50.892;6.906;2024-02-21T11:50:59;12.00;1.00
18717;DHT22;9487;50.892;6.906;2024-02-21T11:53:26;12.00;54.50
18717;DHT22;9487;50.892;6.906;2024-02-21T11:55:56;12.00;1.00
18717;DHT22;9487;50.892;6.906;2024-02-21T11:58:24;12.10;99.90
18717;DHT22;9487;50.892;6.906;2024-02-21T12:00:52;12.30;1.00
18717;DHT22;9487;50.892;6.906;2024-02-21T12:03:19;12.10;99.90
18717;DHT22;9487;50.892;6.906;2024-02-21T12:05:46;12.10;1.00
18717;DHT22;9487;50.892;6.906;2024-02-21T12:08:13;12.20;99.90
18717;DHT22;9487;50.892;6.906;2024-02-21T12:10:42;12.30;1.00
18717;DHT22;9487;50.892;6.906;2024-02-21T12:13:10;12.30;1.00
18717;DHT22;9487;50.892;6.906;2024-02-21T12:15:38;12.30;1.00
18717;DHT22;9487;50.892;6.906;2024-02-21T12:18:07;12.30;1.00
18717;DHT22;9487;50.892;6.906;2024-02-21T12:20:35;12.10;1.00
18717;DHT22;9487;50.892;6.906;2024-02-21T12:23:02;12.20;1.00
18717;DHT22;9487;50.892;6.906;2024-02-21T12:25:30;12.20;99.90
18717;DHT22;9487;50.892;6.906;2024-02-21T12:27:56;12.20;1.00
18717;DHT22;9487;50.892;6.906;2024-02-21T12:30:25;12.20;1.00
18717;DHT22;9487;50.892;6.906;2024-02-21T12:32:52;12.20;99.90
18717;DHT22;9487;50.892;6.906;2024-02-21T12:35:20;12.20;1.00
18717;DHT22;9487;50.892;6.906;2024-02-21T12:37:47;12.20;1.00
18717;DHT22;9487;50.892;6.906;2024-02-21T12:40:14;12.30;73.90
18717;DHT22;9487;50.892;6.906;2024-02-21T12:42:41;12.30;99.90
18717;DHT22;9487;50.892;6.906;2024-02-21T12:45:08;12.30;1.00
18717;DHT22;9487;50.892;6.906;2024-02-21T12:47:35;12.20;20.60
18717;DHT22;9487;50.892;6.906;2024-02-21T12:50:02;12.10;99.90
18717;DHT22;9487;50.892;6.906;2024-02-21T12:52:33;12.20;99.90
18717;DHT22;9487;50.892;6.906;2024-02-21T12:55:00;12.10;97.70
18717;DHT22;9487;50.892;6.906;2024-02-21T12:57:27;12.10;1.00
18717;DHT22;9487;50.892;6.906;2024-02-21T12:59:54;12.10;1.00
18717;DHT22;9487;50.892;6.906;2024-02-21T13:02:21;12.00;1.00
18717;DHT22;9487;50.892;6.906;2024-02-21T13:04:48;12.10;1.00
18717;DHT22;9487;50.892;6.906;2024-02-21T13:07:15;12.00;1.00
18717;DHT22;9487;50.892;6.906;2024-02-21T13:09:43;12.00;1.00
18717;DHT22;9487;50.892;6.906;2024-02-21T13:12:10;12.10;1.00
18717;DHT22;9487;50.892;6.906;2024-02-21T13:14:37;12.20;1.00
18717;DHT22;9487;50.892;6.906;2024-02-21T13:17:05;12.20;99.90
18717;DHT22;9487;50.892;6.906;2024-02-21T13:19:32;12.30;1.00
18717;DHT22;9487;50.892;6.906;2024-02-21T13:21:59;12.30;99.90
18717;DHT22;9487;50.892;6.906;2024-02-21T13:24:26;12.70;1.00
18717;DHT22;9487;50.892;6.906;2024-02-21T13:26:54;13.30;1.00
18717;DHT22;9487;50.892;6.906;2024-02-21T13:29:21;13.50;99.90
18717;DHT22;9487;50.892;6.906;2024-02-21T13:31:48;13.60;1.00
18717;DHT22;9487;50.892;6.906;2024-02-21T13:34:15;13.30;99.90
18717;DHT22;9487;50.892;6.906;2024-02-21T13:36:42;13.00;1.00
18717;DHT22;9487;50.892;6.906;2024-02-21T13:39:09;12.80;99.90
18717;DHT22;9487;50.892;6.906;2024-02-21T13:41:38;12.90;1.00
18717;DHT22;9487;50.892;6.906;2024-02-21T13:44:06;12.90;99.90
18717;DHT22;9487;50.892;6.906;2024-02-21T13:46:35;12.80;1.00
18717;DHT22;9487;50.892;6.906;2024-02-21T13:49:05;12.80;99.90
18717;DHT22;9487;50.892;6.906;2024-02-21T13:51:33;12.80;1.00
18717;DHT22;9487;50.892;6.906;2024-02-21T13:54:02;12.60;99.90
18717;DHT22;9487;50.892;6.906;2024-02-21T13:56:29;12.50;83.70
18717;DHT22;9487;50.892;6.906;2024-02-21T13:58:57;12.60;99.90
18717;DHT22;9487;50.892;6.906;2024-02-21T14:01:26;12.50;99.90
18717;DHT22;9487;50.892;6.906;2024-02-21T14:03:54;12.40;1.00
18717;DHT22;9487;50.892;6.906;2024-02-21T14:06:21;12.50;1.00
18717;DHT22;9487;50.892;6.906;2024-02-21T14:08:48;12.50;99.90
18717;DHT22;9487;50.892;6.906;2024-02-21T14:11:15;12.50;99.90
18717;DHT22;9487;50.892;6.906;2024-02-21T14:13:41;12.50;1.00
18717;DHT22;9487;50.892;6.906;2024-02-21T14:16:11;12.50;99.90
18717;DHT22;9487;50.892;6.906;2024-02-21T14:18:43;12.60;1.00
18717;DHT22;9487;50.892;6.906;2024-02-21T14:21:10;12.50;1.00
18717;DHT22;9487;50.892;6.906;2024-02-21T14:23:37;12.60;99.90
18717;DHT22;9487;50.892;6.906;2024-02-21T14:26:04;12.60;99.90
18717;DHT22;9487;50.892;6.906;2024-02-21T14:28:32;12.60;1.00
18717;DHT22;9487;50.892;6.906;2024-02-21T14:30:59;12.60;1.00
18717;DHT22;9487;50.892;6.906;2024-02-21T14:33:26;12.50;99.90
18717;DHT22;9487;50.892;6.906;2024-02-21T14:35:56;12.50;1.00
18717;DHT22;9487;50.892;6.906;2024-02-21T14:38:23;12.50;1.00
18717;DHT22;9487;50.892;6.906;2024-02-21T14:40:49;12.60;1.00
18717;DHT22;9487;50.892;6.906;2024-02-21T14:43:16;12.60;1.00
18717;DHT22;9487;50.892;6.906;2024-02-21T14:45:44;12.60;1.00
18717;DHT22;9487;50.892;6.906;2024-02-21T14:48:14;12.50;99.90
18717;DHT22;9487;50.892;6.906;2024-02-21T14:50:41;12.50;1.00
18717;DHT22;9487;50.892;6.906;2024-02-21T14:53:09;12.40;1.00
18717;DHT22;9487;50.892;6.906;2024-02-21T14:55:38;12.30;44.80
18717;DHT22;9487;50.892;6.906;2024-02-21T14:58:07;12.40;99.90
18717;DHT22;9487;50.892;6.906;2024-02-21T15:00:34;12.40;99.90
18717;DHT22;9487;50.892;6.906;2024-02-21T15:03:02;12.40;1.00
18717;DHT22;9487;50.892;6.906;2024-02-21T15:05:29;12.40;1.00
18717;DHT22;9487;50.892;6.906;2024-02-21T15:07:56;12.50;1.00
18717;DHT22;9487;50.892;6.906;2024-02-21T15:10:25;12.50;1.00
18717;DHT22;9487;50.892;6.906;2024-02-21T15:12:52;12.50;1.00
18717;DHT22;9487;50.892;6.906;2024-02-21T15:15:20;12.50;1.00
18717;DHT22;9487;50.892;6.906;2024-02-21T15:17:47;12.60;1.00
18717;DHT22;9487;50.892;6.906;2024-02-21T15:20:14;12.50;1.00
18717;DHT22;9487;50.892;6.906;2024-02-21T15:22:41;12.40;1.00
18717;DHT22;9487;50.892;6.906;2024-02-21T15:25:08;12.40;99.90
18717;DHT22;9487;50.892;6.906;2024-02-21T15:27:42;12.30;99.90
18717;DHT22;9487;50.892;6.906;2024-02-21T15:30:10;12.40;99.90
18717;DHT22;9487;50.892;6.906;2024-02-21T15:32:40;12.40;1.00
18717;DHT22;9487;50.892;6.906;2024-02-21T15:35:09;12.30;99.90
18717;DHT22;9487;50.892;6.906;2024-02-21T15:37:36;12.30;99.90
18717;DHT22;9487;50.892;6.906;2024-02-21T15:40:04;12.30;99.90
18717;DHT22;9487;50.892;6.906;2024-02-21T15:42:33;12.30;1.00
18717;DHT22;9487;50.892;6.906;2024-02-21T15:45:03;12.40;12.60
18717;DHT22;9487;50.892;6.906;2024-02-21T15:47:30;12.50;1.00
18717;DHT22;9487;50.892;6.906;2024-02-21T15:49:57;12.60;1.00
18717;DHT22;9487;50.892;6.906;2024-02-21T15:52:26;12.50;1.00
18717;DHT22;9487;50.892;6.906;2024-02-21T15:54:52;12.50;1.00
18717;DHT22;9487;50.892;6.906;2024-02-21T15:57:19;12.40;1.00
18717;DHT22;9487;50.892;6.906;2024-02-21T15:59:48;12.30;1.00
18717;DHT22;9487;50.892;6.906;2024-02-21T16:02:18;12.30;1.00
18717;DHT22;9487;50.892;6.906;2024-02-21T16:04:44;12.30;31.20
18717;DHT22;9487;50.892;6.906;2024-02-21T16:07:12;12.30;1.00
18717;DHT22;9487;50.892;6.906;2024-02-21T16:09:39;12.10;1.00